Time;durP1;ratioP1;P1;durP2;ratioP2;P2;SDS_P1;SDS_P2;PMS_P1;PMS_P2;Temp;Humidity;BMP_temperature;BMP_pressure;BME280_temperature;BME280_humidity;BME280_pressure;Samples;Min_cycle;Max_cycle;Signal;HPM_P1;HPM_P2
2023/07/29 00:01:09;;;;;;;1999.90;999.90;;;19.90;99.90;;;;;;5034312;28;20026;-70
2023/07/29 00:03:35;;;;;;;1999.90;999.90;;;19.90;99.90;;;;;;5033789;28;20595;-69
2023/07/29 00:06:00;;;;;;;1999.90;999.90;;;19.80;99.90;;;;;;5026196;28;20043;-70
2023/07/29 00:08:26;;;;;;;1999.90;999.90;;;19.90;99.90;;;;;;5053798;28;20025;-76
2023/07/29 00:10:52;;;;;;;1999.90;999.90;;;19.90;99.90;;;;;;5040099;28;20029;-70
2023/07/29 00:13:17;;;;;;;1999.90;999.90;;;19.90;99.90;;;;;;5033661;28;20030;-70
2023/07/29 00:15:43;;;;;;;1999.90;999.90;;;19.90;99.90;;;;;;5033660;28;20091;-70
2023/07/29 00:18:08;;;;;;;1999.90;999.90;;;19.90;99.90;;;;;;5033677;28;20022;-70
2023/07/29 00:20:34;;;;;;;1999.90;999.90;;;19.90;99.90;;;;;;5032753;28;20104;-76
2023/07/29 00:23:01;;;;;;;1999.90;999.90;;;19.90;99.90;;;;;;5033423;28;20025;-70
2023/07/29 00:25:26;;;;;;;1999.90;999.90;;;19.90;99.90;;;;;;5033662;28;20029;-70
2023/07/29 00:27:54;;;;;;;1999.90;999.90;;;19.90;99.90;;;;;;5033271;28;20033;-70
2023/07/29 00:30:19;;;;;;;1999.90;999.90;;;19.90;99.90;;;;;;5033316;28;20033;-69
2023/07/29 00:32:45;;;;;;;1999.90;999.90;;;19.90;99.90;;;;;;5015633;28;20040;-76
2023/07/29 00:35:11;;;;;;;1999.90;999.90;;;19.90;99.90;;;;;;5032674;28;20041;-70
2023/07/29 00:37:37;;;;;;;1999.90;999.90;;;20.00;99.90;;;;;;5033160;28;20072;-70
2023/07/29 00:40:07;;;;;;;1999.90;999.90;;;20.00;99.90;;;;;;5033568;28;20029;-70
2023/07/29 00:42:33;;;;;;;1999.90;999.90;;;20.00;99.90;;;;;;5032867;28;20484;-70
2023/07/29 00:44:58;;;;;;;1999.90;999.90;;;20.10;99.90;;;;;;5032430;28;20018;-75
2023/07/29 00:47:25;;;;;;;1999.90;999.90;;;20.10;99.90;;;;;;5031385;28;20025;-70
2023/07/29 00:49:51;;;;;;;1999.90;999.90;;;20.10;99.90;;;;;;5032178;28;20041;-70
2023/07/29 00:52:17;;;;;;;1999.90;999.90;;;20.10;99.90;;;;;;5050032;28;20029;-70
2023/07/29 00:54:43;;;;;;;1999.90;999.90;;;20.10;99.90;;;;;;5052042;28;20025;-70
2023/07/29 00:57:10;;;;;;;1999.90;999.90;;;20.00;99.90;;;;;;5033333;28;20043;-70
2023/07/29 00:59:36;;;;;;;1999.90;999.90;;;20.00;99.90;;;;;;5051903;28;20391;-70
2023/07/29 01:02:02;;;;;;;1999.90;999.90;;;20.00;99.90;;;;;;5052272;28;20099;-70
2023/07/29 01:04:28;;;;;;;1999.90;999.90;;;20.00;99.90;;;;;;5052111;28;20021;-70
2023/07/29 01:07:08;;;;;;;1999.90;999.90;;;20.00;99.90;;;;;;5051873;28;20032;-70
2023/07/29 01:09:40;;;;;;;1999.90;999.90;;;19.90;99.90;;;;;;5050016;28;20146;-70
2023/07/29 01:12:24;;;;;;;;;;;19.90;99.90;;;;;;5032440;28;20014;-70
2023/07/29 01:15:27;;;;;;;1999.90;999.90;;;19.90;99.90;;;;;;5032083;28;19999;-70
2023/07/29 01:17:58;;;;;;;1999.90;999.90;;;19.90;99.90;;;;;;5032235;28;20076;-70
2023/07/29 01:20:25;;;;;;;1999.90;999.90;;;19.90;99.90;;;;;;5031871;28;20022;-70
2023/07/29 01:22:51;;;;;;;1999.90;999.90;;;20.00;99.90;;;;;;5032505;28;20384;-70
2023/07/29 01:25:17;;;;;;;1999.90;999.90;;;20.00;99.90;;;;;;5035503;28;20104;-75
2023/07/29 01:27:44;;;;;;;1999.90;999.90;;;20.00;99.90;;;;;;5035480;28;20460;-70
2023/07/29 01:30:10;;;;;;;1999.90;999.90;;;20.00;99.90;;;;;;5035405;28;20155;-70
2023/07/29 01:32:54;;;;;;;1999.90;999.90;;;20.10;99.90;;;;;;5035517;28;20104;-70
2023/07/29 01:35:34;;;;;;;1999.90;999.90;;;20.10;99.90;;;;;;5017430;28;20036;-70
2023/07/29 01:38:19;;;;;;;1999.90;999.90;;;20.10;99.90;;;;;;5035174;28;20374;-70
2023/07/29 01:40:45;;;;;;;1999.90;999.90;;;20.10;99.90;;;;;;5035427;28;20018;-70
2023/07/29 01:43:11;;;;;;;1999.90;999.90;;;20.10;99.90;;;;;;4995306;28;1160075;-70
2023/07/29 01:45:38;;;;;;;1999.90;999.90;;;20.20;99.90;;;;;;5018580;28;20037;-70
2023/07/29 01:48:07;;;;;;;1999.90;999.90;;;20.10;99.90;;;;;;5017504;28;20041;-70
2023/07/29 01:50:34;;;;;;;1999.90;999.90;;;20.20;99.90;;;;;;5036049;28;20032;-75
2023/07/29 01:52:59;;;;;;;1999.90;999.90;;;20.20;99.90;;;;;;5018812;28;20083;-70
2023/07/29 01:55:25;;;;;;;1999.90;999.90;;;20.20;99.90;;;;;;5036181;28;20116;-70
2023/07/29 01:57:51;;;;;;;1999.90;999.90;;;20.20;99.90;;;;;;5036184;28;20111;-70
2023/07/29 02:00:18;;;;;;;1999.90;999.90;;;20.30;99.90;;;;;;5036557;28;20018;-70
2023/07/29 02:02:44;;;;;;;1999.90;999.90;;;20.30;99.90;;;;;;5036266;28;20383;-75
2023/07/29 02:05:10;;;;;;;1999.90;999.90;;;20.30;99.90;;;;;;5035988;28;20033;-75
2023/07/29 02:07:36;;;;;;;1999.90;999.90;;;20.40;99.90;;;;;;5036066;28;20025;-70
2023/07/29 02:10:01;;;;;;;1999.90;999.90;;;20.40;99.90;;;;;;5036043;28;20050;-70
2023/07/29 02:12:27;;;;;;;1999.90;999.90;;;20.40;99.90;;;;;;5018572;28;20038;-70
2023/07/29 02:14:52;;;;;;;1999.90;999.90;;;20.40;99.90;;;;;;5035990;28;20056;-75
2023/07/29 02:17:18;;;;;;;1999.90;999.90;;;20.50;99.90;;;;;;5036004;28;20026;-69
2023/07/29 02:19:44;;;;;;;1999.90;999.90;;;20.50;99.90;;;;;;5035953;28;20056;-70
2023/07/29 02:22:13;;;;;;;1999.90;999.90;;;20.50;99.90;;;;;;5014460;28;20026;-70
2023/07/29 02:24:38;;;;;;;1999.90;999.90;;;20.50;99.90;;;;;;4998461;28;20493;-70
2023/07/29 02:27:04;;;;;;;1999.90;999.90;;;20.50;99.90;;;;;;4998271;28;20113;-70
2023/07/29 02:29:30;;;;;;;1999.90;999.90;;;20.50;99.90;;;;;;5016261;28;20022;-75
2023/07/29 02:31:56;;;;;;;1999.90;999.90;;;20.40;99.90;;;;;;5015826;28;20436;-75
2023/07/29 02:34:21;;;;;;;1999.90;999.90;;;20.40;99.90;;;;;;5022117;28;20025;-69
2023/07/29 02:36:47;;;;;;;1999.90;999.90;;;20.50;99.90;;;;;;5035663;28;20060;-70
2023/07/29 02:39:13;;;;;;;1999.90;999.90;;;20.40;99.90;;;;;;5017784;28;20475;-70
2023/07/29 02:41:38;;;;;;;1999.90;999.90;;;20.50;99.90;;;;;;5035768;28;20025;-75
2023/07/29 02:44:05;;;;;;;1999.90;999.90;;;20.50;99.90;;;;;;5035290;28;20042;-70
2023/07/29 02:46:30;;;;;;;1999.90;999.90;;;20.50;99.90;;;;;;5035247;28;20052;-70
2023/07/29 02:48:56;;;;;;;1999.90;999.90;;;20.50;99.90;;;;;;5034446;28;20033;-70
2023/07/29 02:51:22;;;;;;;1999.90;999.90;;;20.50;99.90;;;;;;5044687;28;20029;-70
2023/07/29 02:53:47;;;;;;;1999.90;999.90;;;20.50;99.90;;;;;;5055108;28;20029;-75
2023/07/29 02:56:13;;;;;;;1999.90;999.90;;;20.50;99.90;;;;;;5055230;28;20399;-70
2023/07/29 02:58:39;;;;;;;1999.90;999.90;;;20.50;99.90;;;;;;5054835;28;20535;-70
2023/07/29 03:01:06;;;;;;;1999.90;999.90;;;20.50;99.90;;;;;;5055371;28;20028;-70
2023/07/29 03:03:32;;;;;;;1999.90;999.90;;;20.50;99.90;;;;;;5055301;28;20025;-70
2023/07/29 03:06:09;;;;;;;1999.90;999.90;;;20.50;99.90;;;;;;5037020;28;20035;-70
2023/07/29 03:08:35;;;;;;;1999.90;999.90;;;20.50;99.90;;;;;;5054844;28;20037;-75
2023/07/29 03:11:09;;;;;;;1999.90;999.90;;;20.50;99.90;;;;;;5040497;28;20029;-70
2023/07/29 03:13:34;;;;;;;1999.90;999.90;;;20.50;99.90;;;;;;5034721;28;20033;-70
2023/07/29 03:16:07;;;;;;;1999.90;999.90;;;20.50;99.90;;;;;;5034738;28;20018;-70
2023/07/29 03:18:33;;;;;;;1999.90;999.90;;;20.50;99.90;;;;;;5034942;28;20059;-70
2023/07/29 03:20:59;;;;;;;1999.90;999.90;;;20.60;99.90;;;;;;5033940;28;20032;-73
2023/07/29 03:23:24;;;;;;;1999.90;999.90;;;20.60;99.90;;;;;;5034389;28;20079;-75
2023/07/29 03:25:56;;;;;;;1999.90;999.90;;;20.60;99.90;;;;;;5034565;28;20049;-70
2023/07/29 03:28:23;;;;;;;1999.90;999.90;;;20.60;99.90;;;;;;5016974;28;20454;-70
2023/07/29 03:30:48;;;;;;;1999.90;999.90;;;20.60;99.90;;;;;;5035053;28;20048;-69
2023/07/29 03:33:14;;;;;;;1999.90;999.90;;;20.60;99.90;;;;;;5016633;28;20037;-75
2023/07/29 03:35:39;;;;;;;1999.90;999.90;;;20.60;99.90;;;;;;5034192;28;20030;-75
2023/07/29 03:38:05;;;;;;;1999.90;999.90;;;20.60;99.90;;;;;;5034690;28;20100;-70
2023/07/29 03:40:31;;;;;;;1999.90;999.90;;;20.60;99.90;;;;;;5016822;28;20124;-70
2023/07/29 03:42:56;;;;;;;1999.90;999.90;;;20.60;99.90;;;;;;5034231;28;20128;-70
2023/07/29 03:45:22;;;;;;;1999.90;999.90;;;20.60;99.90;;;;;;5033635;28;20030;-70
2023/07/29 03:47:47;;;;;;;1999.90;999.90;;;20.60;99.90;;;;;;5033740;28;20061;-70
2023/07/29 03:50:13;;;;;;;1999.90;999.90;;;20.60;99.90;;;;;;5033834;28;20144;-70
2023/07/29 03:52:38;;;;;;;1999.90;999.90;;;20.60;99.90;;;;;;5034177;28;20353;-69
2023/07/29 03:55:04;;;;;;;1999.90;999.90;;;20.60;99.90;;;;;;5034000;28;20029;-69
2023/07/29 03:57:30;;;;;;;1999.90;999.90;;;20.60;99.90;;;;;;5016157;28;20494;-69
2023/07/29 03:59:56;;;;;;;1999.90;999.90;;;20.60;99.90;;;;;;5034048;28;20017;-69
2023/07/29 04:02:21;;;;;;;1999.90;999.90;;;20.60;99.90;;;;;;5016616;28;20032;-70
2023/07/29 04:04:48;;;;;;;1999.90;999.90;;;20.60;99.90;;;;;;5033622;28;20021;-69
2023/07/29 04:07:14;;;;;;;1999.90;999.90;;;20.60;99.90;;;;;;5016743;28;20381;-75
2023/07/29 04:09:40;;;;;;;1999.90;999.90;;;20.60;99.90;;;;;;5034727;28;20092;-70
2023/07/29 04:12:05;;;;;;;1999.90;999.90;;;20.60;99.90;;;;;;5034155;28;20029;-69
2023/07/29 04:14:31;;;;;;;1999.90;999.90;;;20.60;99.90;;;;;;5036139;28;20078;-76
2023/07/29 04:16:57;;;;;;;1999.90;999.90;;;20.60;99.90;;;;;;5033591;28;20507;-70
2023/07/29 04:19:22;;;;;;;1999.90;999.90;;;20.60;99.90;;;;;;5033582;28;20021;-70
2023/07/29 04:21:50;;;;;;;1999.90;999.90;;;20.60;99.90;;;;;;5033771;28;20443;-69
2023/07/29 04:24:16;;;;;;;1999.90;999.90;;;20.60;99.90;;;;;;5033930;28;20021;-69
2023/07/29 04:26:41;;;;;;;1999.90;999.90;;;20.60;99.90;;;;;;5033643;28;20488;-76
2023/07/29 04:29:07;;;;;;;1999.90;999.90;;;20.60;99.90;;;;;;5033544;28;20053;-69
2023/07/29 04:31:32;;;;;;;1999.90;999.90;;;20.60;99.90;;;;;;5015669;28;20534;-69
2023/07/29 04:33:58;;;;;;;1999.90;999.90;;;20.60;99.90;;;;;;5014933;28;20044;-70
2023/07/29 04:36:24;;;;;;;1999.90;999.90;;;20.60;99.90;;;;;;5033141;28;20033;-69
2023/07/29 04:38:49;;;;;;;1999.90;999.90;;;20.60;99.90;;;;;;5015636;28;20152;-70
2023/07/29 04:41:15;;;;;;;1999.90;999.90;;;20.60;99.90;;;;;;5037391;28;20167;-76
2023/07/29 04:43:41;;;;;;;1999.90;999.90;;;20.50;99.90;;;;;;5033323;28;20048;-69
2023/07/29 04:46:08;;;;;;;1999.90;999.90;;;20.50;99.90;;;;;;5015506;28;20025;-70
2023/07/29 04:48:34;;;;;;;1999.90;999.90;;;20.40;99.90;;;;;;5036657;28;20034;-70
2023/07/29 04:50:59;;;;;;;1999.90;999.90;;;20.50;99.90;;;;;;5040725;28;20084;-75
2023/07/29 04:53:25;;;;;;;1999.90;999.90;;;20.50;99.90;;;;;;5055014;28;20393;-76
2023/07/29 04:55:51;;;;;;;1999.90;999.90;;;20.50;99.90;;;;;;5053138;28;20066;-69
2023/07/29 04:58:16;;;;;;;1999.90;999.90;;;20.40;99.90;;;;;;5034999;28;20039;-69
2023/07/29 05:00:42;;;;;;;1999.90;999.90;;;20.40;99.90;;;;;;5052899;28;20017;-69
2023/07/29 05:03:07;;;;;;;1999.90;999.90;;;20.50;99.90;;;;;;5053024;28;20383;-69
2023/07/29 05:05:33;;;;;;;1999.90;999.90;;;20.50;99.90;;;;;;5052809;28;20029;-69
2023/07/29 05:07:59;;;;;;;1999.90;999.90;;;20.50;99.90;;;;;;5053185;28;20402;-76
2023/07/29 05:10:24;;;;;;;1999.90;999.90;;;20.50;99.90;;;;;;5044232;28;20032;-70
2023/07/29 05:12:50;;;;;;;1999.90;999.90;;;20.60;99.90;;;;;;5032680;28;20101;-70
2023/07/29 05:15:16;;;;;;;1999.90;999.90;;;20.60;99.90;;;;;;5033069;28;20034;-70
2023/07/29 05:17:41;;;;;;;1999.90;999.90;;;20.60;99.90;;;;;;5032438;28;20053;-75
2023/07/29 05:20:07;;;;;;;1999.90;999.90;;;20.70;99.90;;;;;;5032798;28;20021;-70
2023/07/29 05:22:33;;;;;;;1999.90;999.90;;;20.70;99.90;;;;;;5032966;28;20146;-70
2023/07/29 05:24:59;;;;;;;1999.90;999.90;;;20.70;99.90;;;;;;5033122;28;20053;-70
2023/07/29 05:27:24;;;;;;;1999.90;999.90;;;20.70;99.90;;;;;;5032677;28;20029;-70
2023/07/29 05:29:50;;;;;;;1999.90;999.90;;;20.70;99.90;;;;;;5033113;28;20029;-75
2023/07/29 05:32:15;;;;;;;1999.90;999.90;;;20.70;99.90;;;;;;5032989;28;20029;-70
2023/07/29 05:34:41;;;;;;;1999.90;999.90;;;20.80;99.90;;;;;;5032325;28;20092;-70
2023/07/29 05:37:06;;;;;;;1999.90;999.90;;;20.70;99.90;;;;;;5032833;28;20728;-69
2023/07/29 05:39:33;;;;;;;1999.90;999.90;;;20.70;99.90;;;;;;5014852;28;20059;-69
2023/07/29 05:41:58;;;;;;;1999.90;999.90;;;20.70;99.90;;;;;;5032858;28;20021;-69
2023/07/29 05:44:24;;;;;;;1999.90;999.90;;;20.70;99.90;;;;;;5032958;28;20075;-74
2023/07/29 05:46:50;;;;;;;1999.90;999.90;;;20.70;99.90;;;;;;5032317;28;20036;-69
2023/07/29 05:49:15;;;;;;;1999.90;999.90;;;20.70;99.90;;;;;;5032015;28;20037;-69
2023/07/29 05:51:41;;;;;;;1999.90;999.90;;;20.70;99.90;;;;;;5046733;28;20543;-70
2023/07/29 05:54:07;;;;;;;1999.90;999.90;;;20.70;99.90;;;;;;5052394;28;20400;-70
2023/07/29 05:56:32;;;;;;;1999.90;999.90;;;20.70;99.90;;;;;;5034703;28;20029;-73
2023/07/29 05:58:58;;;;;;;1999.90;999.90;;;20.70;99.90;;;;;;5052274;28;20505;-69
2023/07/29 06:01:23;;;;;;;1999.90;999.90;;;20.80;99.90;;;;;;5034506;28;20025;-69
2023/07/29 06:03:49;;;;;;;1999.90;999.90;;;20.80;99.90;;;;;;5052413;28;20172;-69
2023/07/29 06:06:15;;;;;;;1999.90;999.90;;;20.80;99.90;;;;;;5034381;28;20025;-68
2023/07/29 06:08:41;;;;;;;1999.90;999.90;;;20.80;99.90;;;;;;5053034;28;20056;-68
2023/07/29 06:11:07;;;;;;;1999.90;999.90;;;20.80;99.90;;;;;;5040892;28;20526;-68
2023/07/29 06:13:32;;;;;;;1999.90;999.90;;;20.90;99.90;;;;;;5036074;28;20108;-68
2023/07/29 06:15:58;;;;;;;1999.90;999.90;;;20.90;99.90;;;;;;5036146;28;20041;-68
2023/07/29 06:18:24;;;;;;;1999.90;999.90;;;20.90;99.90;;;;;;5036274;28;20079;-68
2023/07/29 06:20:50;;;;;;;1999.90;999.90;;;20.90;99.90;;;;;;5017529;28;20022;-67
2023/07/29 06:23:16;;;;;;;1999.90;999.90;;;20.90;99.90;;;;;;5035493;28;20038;-73
2023/07/29 06:25:42;;;;;;;1999.90;999.90;;;21.00;99.90;;;;;;5035981;28;20101;-69
2023/07/29 06:28:08;;;;;;;1999.90;999.90;;;21.00;99.90;;;;;;5035786;28;20040;-68
2023/07/29 06:30:34;;;;;;;1999.90;999.90;;;21.00;99.90;;;;;;5018329;28;20029;-68
2023/07/29 06:32:59;;;;;;;1999.90;999.90;;;21.10;99.90;;;;;;5035859;28;20055;-68
2023/07/29 06:35:25;;;;;;;1999.90;999.90;;;21.10;99.90;;;;;;5035388;28;20029;-68
2023/07/29 06:37:51;;;;;;;1999.90;999.90;;;21.10;99.90;;;;;;5035984;28;20044;-75
2023/07/29 06:40:16;;;;;;;1999.90;999.90;;;21.20;99.90;;;;;;5035851;28;20479;-68
2023/07/29 06:42:42;;;;;;;1999.90;999.90;;;21.20;99.90;;;;;;5035310;28;20045;-68
2023/07/29 06:45:08;;;;;;;1999.90;999.90;;;21.20;99.90;;;;;;5035633;28;20381;-69
2023/07/29 06:47:34;;;;;;;1999.90;999.90;;;21.20;99.90;;;;;;5017180;28;20095;-69
2023/07/29 06:49:59;;;;;;;1999.90;999.90;;;21.30;99.90;;;;;;5035044;28;20104;-75
2023/07/29 06:52:25;;;;;;;1999.90;999.90;;;21.30;99.90;;;;;;5034496;28;20539;-69
2023/07/29 06:54:50;;;;;;;1999.90;999.90;;;21.30;99.90;;;;;;5035307;28;20033;-68
2023/07/29 06:57:16;;;;;;;1999.90;999.90;;;21.30;99.90;;;;;;5035333;28;20025;-68
2023/07/29 06:59:41;;;;;;;1999.90;999.90;;;21.30;99.90;;;;;;5035243;28;20052;-69
2023/07/29 07:02:07;;;;;;;1999.90;999.90;;;21.30;99.90;;;;;;5035521;28;20471;-68
2023/07/29 07:04:33;;;;;;;1999.90;999.90;;;21.20;99.90;;;;;;5034958;28;20103;-68
2023/07/29 07:06:58;;;;;;;1999.90;999.90;;;21.30;99.90;;;;;;5034989;28;20026;-69
2023/07/29 07:09:24;;;;;;;1999.90;999.90;;;21.30;99.90;;;;;;5035074;28;20021;-69
2023/07/29 07:11:50;;;;;;;1999.90;999.90;;;21.30;99.90;;;;;;5035176;28;20068;-68
2023/07/29 07:14:15;;;;;;;1999.90;999.90;;;21.40;99.90;;;;;;5017495;28;20364;-68
2023/07/29 07:16:41;;;;;;;1999.90;999.90;;;21.20;99.90;;;;;;5016955;28;20050;-69
2023/07/29 07:19:06;;;;;;;1999.90;999.90;;;21.20;99.90;;;;;;5034994;28;20025;-69
2023/07/29 07:21:35;;;;;;;1999.90;999.90;;;21.10;99.90;;;;;;5033413;28;20021;-68
2023/07/29 07:24:01;;;;;;;1999.90;999.90;;;21.10;99.90;;;;;;5034881;28;20026;-68
2023/07/29 07:26:26;;;;;;;1999.90;999.90;;;21.00;99.90;;;;;;5035007;28;20037;-68
2023/07/29 07:28:52;;;;;;;1999.90;999.90;;;21.00;99.90;;;;;;5034816;28;20026;-68
2023/07/29 07:31:18;;;;;;;1999.90;999.90;;;21.00;99.90;;;;;;5034828;28;20036;-69
2023/07/29 07:33:44;;;;;;;1999.90;999.90;;;20.90;99.90;;;;;;5034821;28;20461;-69
2023/07/29 07:36:09;;;;;;;1999.90;999.90;;;20.90;99.90;;;;;;5034573;28;20052;-70
2023/07/29 07:38:35;;;;;;;1999.90;999.90;;;20.90;99.90;;;;;;5034773;28;20460;-70
2023/07/29 07:41:01;;;;;;;1999.90;999.90;;;20.80;99.90;;;;;;5016408;28;20064;-74
2023/07/29 07:43:26;;;;;;;1999.90;999.90;;;20.70;99.90;;;;;;5034074;28;20050;-74
2023/07/29 07:45:58;;;;;;;1999.90;999.90;;;20.80;99.90;;;;;;5034488;28;20036;-69
2023/07/29 07:48:24;;;;;;;1999.90;999.90;;;20.80;99.90;;;;;;5033454;28;20029;-69
2023/07/29 07:50:49;;;;;;;1999.90;999.90;;;20.80;99.90;;;;;;5034089;28;20033;-68
2023/07/29 07:53:15;;;;;;;1999.90;999.90;;;20.80;99.90;;;;;;5034105;28;20100;-75
2023/07/29 07:55:40;;;;;;;1999.90;999.90;;;20.80;99.90;;;;;;5034022;28;20538;-74
2023/07/29 07:58:06;;;;;;;1999.90;999.90;;;20.80;99.90;;;;;;5033949;28;20017;-69
2023/07/29 08:00:32;;;;;;;1999.90;999.90;;;20.90;99.90;;;;;;5034405;28;20104;-68
2023/07/29 08:02:57;;;;;;;1999.90;999.90;;;21.00;99.90;;;;;;5034640;28;20025;-70
2023/07/29 08:05:23;;;;;;;1999.90;999.90;;;21.00;99.90;;;;;;5034006;28;20029;-69
2023/07/29 08:07:48;;;;;;;1999.90;999.90;;;21.10;99.90;;;;;;5033736;28;20374;-68
2023/07/29 08:10:14;;;;;;;1999.90;999.90;;;21.10;99.90;;;;;;5015116;28;20140;-70
2023/07/29 08:12:40;;;;;;;1999.90;999.90;;;21.00;99.90;;;;;;5033718;28;20037;-69
2023/07/29 08:15:06;;;;;;;1999.90;999.90;;;21.00;99.90;;;;;;5033996;28;20537;-70
2023/07/29 08:17:31;;;;;;;1999.90;999.90;;;21.00;99.90;;;;;;5033834;28;20025;-69
2023/07/29 08:19:57;;;;;;;1999.90;999.90;;;21.00;99.90;;;;;;5033702;28;20025;-76
2023/07/29 08:22:22;;;;;;;1999.90;999.90;;;21.00;99.90;;;;;;5033396;28;20017;-69
2023/07/29 08:24:48;;;;;;;1999.90;999.90;;;21.00;99.90;;;;;;5033986;28;20026;-69
2023/07/29 08:27:14;;;;;;;1999.90;999.90;;;21.00;99.90;;;;;;5015682;28;20025;-70
2023/07/29 08:29:39;;;;;;;1999.90;999.90;;;21.00;99.90;;;;;;5033667;28;20025;-69
2023/07/29 08:32:05;;;;;;;1999.90;999.90;;;20.80;99.90;;;;;;5015492;28;20443;-76
2023/07/29 08:34:31;;;;;;;1999.90;999.90;;;21.00;99.90;;;;;;5033394;28;20412;-76
2023/07/29 08:36:56;;;;;;;1999.90;999.90;;;20.90;99.90;;;;;;5033416;28;20067;-69
2023/07/29 08:39:22;;;;;;;1999.90;999.90;;;21.00;99.90;;;;;;5015500;28;20036;-69
2023/07/29 08:42:11;;;;;;;1999.90;999.90;;;21.10;99.90;;;;;;5035300;28;20404;-69
2023/07/29 08:44:42;;;;;;;1999.90;999.90;;;21.10;99.90;;;;;;5033313;28;20044;-69
2023/07/29 08:47:07;;;;;;;1999.90;999.90;;;21.20;99.90;;;;;;5030094;28;20076;-69
2023/07/29 08:49:33;;;;;;;1999.90;999.90;;;21.20;99.90;;;;;;5013136;28;20496;-69
2023/07/29 08:52:01;;;;;;;1999.90;999.90;;;21.20;99.90;;;;;;5013330;28;20026;-69
2023/07/29 08:54:26;;;;;;;1999.90;999.90;;;21.20;99.90;;;;;;5013423;28;20033;-69
2023/07/29 08:56:52;;;;;;;1999.90;999.90;;;21.30;99.90;;;;;;5013433;28;20080;-69
2023/07/29 08:59:19;;;;;;;1999.90;999.90;;;22.00;99.90;;;;;;5013244;28;20375;-77
2023/07/29 09:01:46;;;;;;;1999.90;999.90;;;22.40;99.90;;;;;;5013597;28;20049;-70
2023/07/29 09:04:12;;;;;;;1999.90;999.90;;;22.60;99.90;;;;;;5013141;28;20030;-70
2023/07/29 09:06:39;;;;;;;1999.90;999.90;;;22.60;99.90;;;;;;5028659;28;20030;-70
2023/07/29 09:09:07;;;;;;;1999.90;999.90;;;22.00;99.90;;;;;;5032854;28;20033;-70
2023/07/29 09:11:33;;;;;;;1999.90;999.90;;;21.60;99.90;;;;;;5026635;28;20045;-77
2023/07/29 09:13:58;;;;;;;1999.90;999.90;;;21.50;99.90;;;;;;5013304;28;20464;-77
2023/07/29 09:16:25;;;;;;;1999.90;999.90;;;21.40;99.90;;;;;;5013534;28;20113;-70
2023/07/29 09:18:51;;;;;;;1999.90;999.90;;;21.30;99.90;;;;;;5013285;28;20082;-70
2023/07/29 09:21:22;;;;;;;1999.90;999.90;;;21.20;99.90;;;;;;5012223;28;20435;-70
2023/07/29 09:23:49;;;;;;;1999.90;999.90;;;21.40;99.90;;;;;;5013226;28;20056;-70
2023/07/29 09:26:26;;;;;;;1999.90;999.90;;;22.10;99.90;;;;;;5013243;28;20507;-70
2023/07/29 09:28:53;;;;;;;1999.90;999.90;;;23.10;99.90;;;;;;5011957;28;20041;-70
2023/07/29 09:31:21;;;;;;;1999.90;999.90;;;22.90;99.90;;;;;;5011828;28;20025;-70
2023/07/29 09:33:46;;;;;;;1999.90;999.90;;;22.50;99.90;;;;;;5012894;28;20037;-70
2023/07/29 09:36:12;;;;;;;1999.90;999.90;;;22.40;99.90;;;;;;5013067;28;20037;-70
2023/07/29 09:38:38;;;;;;;1999.90;999.90;;;22.40;99.90;;;;;;5012555;28;20372;-77
2023/07/29 09:41:04;;;;;;;1999.90;999.90;;;22.20;99.90;;;;;;5013158;28;20080;-77
2023/07/29 09:43:34;;;;;;;1999.90;999.90;;;22.30;99.90;;;;;;5011834;28;20049;-71
2023/07/29 09:46:04;;;;;;;1999.90;999.90;;;23.00;99.90;;;;;;5016798;28;20544;-70
2023/07/29 09:48:34;;;;;;;1999.90;999.90;;;23.70;99.90;;;;;;5014702;28;20030;-71
2023/07/29 09:51:08;;;;;;;1999.90;999.90;;;23.70;99.90;;;;;;5016754;28;20022;-76
2023/07/29 09:53:49;;;;;;;1999.90;999.90;;;24.40;99.90;;;;;;5016629;28;20092;-70
2023/07/29 09:56:16;;;;;;;1999.90;999.90;;;25.20;99.90;;;;;;5016724;28;20036;-70
2023/07/29 09:58:48;;;;;;;1999.90;999.90;;;25.00;99.90;;;;;;5015044;28;20390;-70
2023/07/29 10:01:14;;;;;;;1999.90;999.90;;;24.60;99.90;;;;;;5016779;28;20388;-70
2023/07/29 10:03:40;;;;;;;1999.90;999.90;;;23.60;99.90;;;;;;5016792;28;20038;-76
2023/07/29 10:06:07;;;;;;;1999.90;999.90;;;22.80;99.90;;;;;;5015221;28;20565;-77
2023/07/29 10:08:38;;;;;;;1999.90;999.90;;;22.40;99.90;;;;;;5016359;28;20053;-70
2023/07/29 10:11:06;;;;;;;1999.90;999.90;;;22.30;99.90;;;;;;5015854;28;20101;-70
2023/07/29 10:13:33;;;;;;;1999.90;999.90;;;22.60;99.90;;;;;;5016277;28;20030;-70
2023/07/29 10:16:02;;;;;;;1999.90;999.90;;;24.00;99.90;;;;;;5014920;28;20022;-70
2023/07/29 10:18:29;;;;;;;1999.90;999.90;;;25.20;99.90;;;;;;5014807;28;20036;-70
2023/07/29 10:20:57;;;;;;;1999.90;999.90;;;25.80;99.90;;;;;;5016095;28;20492;-71
2023/07/29 10:23:25;;;;;;;1999.90;999.90;;;25.50;99.90;;;;;;5015700;28;20053;-71
2023/07/29 10:26:02;;;;;;;1999.90;999.90;;;25.30;99.90;;;;;;5014589;28;20071;-70
2023/07/29 10:28:30;;;;;;;1999.90;999.90;;;24.70;99.90;;;;;;5016090;28;20485;-70
2023/07/29 10:30:56;;;;;;;1999.90;999.90;;;24.50;99.90;;;;;;5016312;28;20495;-76
2023/07/29 10:33:22;;;;;;;1999.90;999.90;;;23.80;99.90;;;;;;5015984;28;20030;-70
2023/07/29 10:35:48;;;;;;;1999.90;999.90;;;23.50;99.90;;;;;;5015638;28;20048;-70
2023/07/29 10:38:15;;;;;;;1999.90;999.90;;;23.80;99.90;;;;;;5015905;28;20483;-70
2023/07/29 10:40:50;;;;;;;1999.90;999.90;;;24.30;99.90;;;;;;5015964;28;20088;-70
2023/07/29 10:43:27;;;;;;;1999.90;999.90;;;24.30;99.90;;;;;;5026999;28;20041;-77
2023/07/29 10:45:53;;;;;;;1999.90;999.90;;;24.00;99.90;;;;;;5017721;28;20092;-70
2023/07/29 10:48:34;;;;;;;1999.90;999.90;;;23.70;99.90;;;;;;5034827;28;20030;-70
2023/07/29 10:51:35;;;;;;;1999.90;999.90;;;23.30;99.90;;;;;;5035267;28;20136;-70
2023/07/29 10:54:16;;;;;;;1999.90;999.90;;;23.20;99.90;;;;;;5035253;28;20022;-70
2023/07/29 10:56:46;;;;;;;1999.90;999.90;;;23.20;99.90;;;;;;5035358;28;20026;-77
2023/07/29 10:59:12;;;;;;;1999.90;999.90;;;23.00;99.90;;;;;;5035060;28;20041;-70
2023/07/29 11:01:40;;;;;;;1999.90;999.90;;;22.70;99.90;;;;;;5035328;28;20097;-69
2023/07/29 11:04:23;;;;;;;1999.90;999.90;;;22.70;99.90;;;;;;5035488;28;20500;-70
2023/07/29 11:07:04;;;;;;;1999.90;999.90;;;22.60;99.90;;;;;;5035206;28;20079;-70
2023/07/29 11:10:04;;;;;;;1999.90;999.90;;;22.60;99.90;;;;;;5035152;28;20033;-78
2023/07/29 11:12:51;;;;;;;1999.90;999.90;;;22.80;99.90;;;;;;5023940;28;20040;-70
2023/07/29 11:15:24;;;;;;;1999.90;999.90;;;23.20;99.90;;;;;;5034774;28;20034;-70
2023/07/29 11:17:55;;;;;;;1999.90;999.90;;;23.30;99.90;;;;;;5017646;28;20455;-70
2023/07/29 11:20:26;;;;;;;1999.90;999.90;;;23.70;99.90;;;;;;5034290;28;20030;-70
2023/07/29 11:22:54;;;;;;;1999.90;999.90;;;23.80;99.90;;;;;;5034561;28;20491;-77
2023/07/29 11:25:22;;;;;;;1999.90;999.90;;;23.90;99.90;;;;;;5034776;28;20488;-70
2023/07/29 11:27:48;;;;;;;1999.90;999.90;;;23.70;99.90;;;;;;5034993;28;20017;-70
2023/07/29 11:30:15;;;;;;;1999.90;999.90;;;23.70;99.90;;;;;;5017106;28;20082;-70
2023/07/29 11:32:43;;;;;;;1999.90;999.90;;;23.60;99.90;;;;;;5017452;28;20413;-70
2023/07/29 11:35:11;;;;;;;1999.90;999.90;;;24.10;99.90;;;;;;5034274;28;20026;-70
2023/07/29 11:37:38;;;;;;;1999.90;999.90;;;24.50;99.90;;;;;;5034404;28;20017;-71
2023/07/29 11:40:05;;;;;;;1999.90;999.90;;;24.70;99.90;;;;;;5034476;28;20029;-70
2023/07/29 11:42:35;;;;;;;1999.90;999.90;;;24.90;99.90;;;;;;5034469;28;20049;-71
2023/07/29 11:45:02;;;;;;;1999.90;999.90;;;25.30;99.90;;;;;;5016598;28;20025;-71
2023/07/29 11:47:28;;;;;;;1999.90;999.90;;;25.20;99.90;;;;;;5033799;28;20017;-77
2023/07/29 11:49:53;;;;;;;1999.90;999.90;;;24.80;99.90;;;;;;5034001;28;20092;-71
2023/07/29 11:52:19;;;;;;;1999.90;999.90;;;24.30;99.90;;;;;;5016439;28;20053;-71
2023/07/29 11:54:49;;;;;;;1999.90;999.90;;;24.10;99.90;;;;;;5034276;28;20026;-71
2023/07/29 11:57:16;;;;;;;1999.90;999.90;;;23.70;99.90;;;;;;5034325;28;20018;-71
2023/07/29 11:59:42;;;;;;;1999.90;999.90;;;23.60;99.90;;;;;;5033982;28;20029;-74